sensor_id;sensor_type;location;lat;lon;timestamp;P1;durP1;ratioP1;P2;durP2;ratioP2
27161;SDS011;54464;50.558;9.704;2023-04-12T00:01:51;2.30;;;1.20;;
27161;SDS011;54464;50.558;9.704;2023-04-12T00:04:16;2.37;;;1.20;;
27161;SDS011;54464;50.558;9.704;2023-04-12T00:06:42;4.30;;;1.63;;
27161;SDS011;54464;50.558;9.704;2023-04-12T00:09:12;4.27;;;1.10;;
27161;SDS011;54464;50.558;9.704;2023-04-12T00:11:38;4.53;;;1.23;;
27161;SDS011;54464;50.558;9.704;2023-04-12T00:14:03;5.47;;;1.30;;
27161;SDS011;54464;50.558;9.704;2023-04-12T00:16:29;3.87;;;1.10;;
27161;SDS011;54464;50.558;9.704;2023-04-12T00:18:55;4.13;;;1.20;;
27161;SDS011;54464;50.558;9.704;2023-04-12T00:21:21;3.17;;;1.17;;
27161;SDS011;54464;50.558;9.704;2023-04-12T00:23:47;3.10;;;1.10;;
27161;SDS011;54464;50.558;9.704;2023-04-12T00:26:13;6.27;;;1.20;;
27161;SDS011;54464;50.558;9.704;2023-04-12T00:28:40;3.37;;;1.00;;
27161;SDS011;54464;50.558;9.704;2023-04-12T00:31:06;3.30;;;1.17;;
27161;SDS011;54464;50.558;9.704;2023-04-12T00:33:32;2.70;;;1.10;;
27161;SDS011;54464;50.558;9.704;2023-04-12T00:35:58;2.57;;;1.10;;
27161;SDS011;54464;50.558;9.704;2023-04-12T00:38:24;4.53;;;1.27;;
27161;SDS011;54464;50.558;9.704;2023-04-12T00:40:51;4.17;;;1.20;;
27161;SDS011;54464;50.558;9.704;2023-04-12T00:43:16;2.67;;;1.10;;
27161;SDS011;54464;50.558;9.704;2023-04-12T00:45:45;1.97;;;1.20;;
27161;SDS011;54464;50.558;9.704;2023-04-12T00:48:11;4.93;;;1.47;;
27161;SDS011;54464;50.558;9.704;2023-04-12T00:50:41;3.87;;;1.30;;
27161;SDS011;54464;50.558;9.704;2023-04-12T00:53:08;5.37;;;1.33;;
27161;SDS011;54464;50.558;9.704;2023-04-12T00:55:41;3.87;;;1.30;;
27161;SDS011;54464;50.558;9.704;2023-04-12T00:58:08;3.20;;;1.57;;
27161;SDS011;54464;50.558;9.704;2023-04-12T01:00:34;3.93;;;2.00;;
27161;SDS011;54464;50.558;9.704;2023-04-12T01:02:59;6.67;;;2.23;;
27161;SDS011;54464;50.558;9.704;2023-04-12T01:05:26;7.57;;;2.27;;
27161;SDS011;54464;50.558;9.704;2023-04-12T01:08:12;6.53;;;2.50;;
27161;SDS011;54464;50.558;9.704;2023-04-12T01:11:01;5.53;;;2.40;;
27161;SDS011;54464;50.558;9.704;2023-04-12T01:13:58;3.50;;;2.37;;
27161;SDS011;54464;50.558;9.704;2023-04-12T01:16:46;4.73;;;2.50;;
27161;SDS011;54464;50.558;9.704;2023-04-12T01:19:24;7.40;;;3.23;;
27161;SDS011;54464;50.558;9.704;2023-04-12T01:27:38;5.60;;;2.10;;
27161;SDS011;54464;50.558;9.704;2023-04-12T01:30:09;3.67;;;1.43;;
27161;SDS011;54464;50.558;9.704;2023-04-12T01:32:38;5.00;;;1.40;;
27161;SDS011;54464;50.558;9.704;2023-04-12T01:35:05;3.37;;;1.43;;
27161;SDS011;54464;50.558;9.704;2023-04-12T01:37:33;6.50;;;1.40;;
27161;SDS011;54464;50.558;9.704;2023-04-12T01:39:59;4.03;;;1.60;;
27161;SDS011;54464;50.558;9.704;2023-04-12T01:42:25;4.43;;;1.27;;
27161;SDS011;54464;50.558;9.704;2023-04-12T01:44:52;2.13;;;1.20;;
27161;SDS011;54464;50.558;9.704;2023-04-12T01:47:17;4.63;;;1.33;;
27161;SDS011;54464;50.558;9.704;2023-04-12T01:49:48;2.73;;;1.17;;
27161;SDS011;54464;50.558;9.704;2023-04-12T01:52:21;3.63;;;1.70;;
27161;SDS011;54464;50.558;9.704;2023-04-12T01:54:55;4.10;;;1.10;;
27161;SDS011;54464;50.558;9.704;2023-04-12T01:57:24;5.00;;;1.63;;
27161;SDS011;54464;50.558;9.704;2023-04-12T01:59:50;4.30;;;1.50;;
27161;SDS011;54464;50.558;9.704;2023-04-12T02:02:20;6.50;;;1.90;;
27161;SDS011;54464;50.558;9.704;2023-04-12T02:04:46;5.07;;;2.00;;
27161;SDS011;54464;50.558;9.704;2023-04-12T02:07:12;6.43;;;1.93;;
27161;SDS011;54464;50.558;9.704;2023-04-12T02:09:39;6.10;;;1.40;;
27161;SDS011;54464;50.558;9.704;2023-04-12T02:12:05;5.37;;;1.43;;
27161;SDS011;54464;50.558;9.704;2023-04-12T02:14:31;2.97;;;1.33;;
27161;SDS011;54464;50.558;9.704;2023-04-12T02:16:57;6.43;;;1.37;;
27161;SDS011;54464;50.558;9.704;2023-04-12T02:19:26;4.57;;;1.47;;
27161;SDS011;54464;50.558;9.704;2023-04-12T02:21:51;5.13;;;1.40;;
27161;SDS011;54464;50.558;9.704;2023-04-12T02:24:17;3.97;;;1.20;;
27161;SDS011;54464;50.558;9.704;2023-04-12T02:26:43;4.10;;;1.30;;
27161;SDS011;54464;50.558;9.704;2023-04-12T02:29:09;2.93;;;1.53;;
27161;SDS011;54464;50.558;9.704;2023-04-12T02:31:35;4.20;;;1.20;;
27161;SDS011;54464;50.558;9.704;2023-04-12T02:34:02;5.73;;;1.70;;
27161;SDS011;54464;50.558;9.704;2023-04-12T02:36:28;4.83;;;1.23;;
27161;SDS011;54464;50.558;9.704;2023-04-12T02:38:54;3.20;;;1.20;;
27161;SDS011;54464;50.558;9.704;2023-04-12T02:41:20;5.40;;;1.10;;
27161;SDS011;54464;50.558;9.704;2023-04-12T02:43:47;5.00;;;1.30;;
27161;SDS011;54464;50.558;9.704;2023-04-12T02:46:17;3.57;;;1.00;;
27161;SDS011;54464;50.558;9.704;2023-04-12T02:48:46;3.10;;;1.17;;
27161;SDS011;54464;50.558;9.704;2023-04-12T02:51:12;3.83;;;1.33;;
27161;SDS011;54464;50.558;9.704;2023-04-12T02:53:38;3.60;;;1.37;;
27161;SDS011;54464;50.558;9.704;2023-04-12T02:56:04;2.20;;;1.37;;
27161;SDS011;54464;50.558;9.704;2023-04-12T02:58:32;3.40;;;1.40;;
27161;SDS011;54464;50.558;9.704;2023-04-12T03:00:59;3.97;;;1.83;;
27161;SDS011;54464;50.558;9.704;2023-04-12T03:03:25;5.87;;;2.20;;
27161;SDS011;54464;50.558;9.704;2023-04-12T03:05:52;6.17;;;1.97;;
27161;SDS011;54464;50.558;9.704;2023-04-12T03:08:18;5.27;;;2.07;;
27161;SDS011;54464;50.558;9.704;2023-04-12T03:10:44;3.03;;;1.80;;
27161;SDS011;54464;50.558;9.704;2023-04-12T03:13:10;4.07;;;1.40;;
27161;SDS011;54464;50.558;9.704;2023-04-12T03:15:35;6.37;;;2.00;;
27161;SDS011;54464;50.558;9.704;2023-04-12T03:18:01;4.93;;;1.53;;
27161;SDS011;54464;50.558;9.704;2023-04-12T03:20:27;3.97;;;1.57;;
27161;SDS011;54464;50.558;9.704;2023-04-12T03:22:52;4.13;;;1.60;;
27161;SDS011;54464;50.558;9.704;2023-04-12T03:25:18;4.70;;;1.50;;
27161;SDS011;54464;50.558;9.704;2023-04-12T03:27:44;4.17;;;1.57;;
27161;SDS011;54464;50.558;9.704;2023-04-12T03:30:10;3.67;;;1.60;;
27161;SDS011;54464;50.558;9.704;2023-04-12T03:32:36;4.00;;;1.60;;
27161;SDS011;54464;50.558;9.704;2023-04-12T03:35:06;4.53;;;1.60;;
27161;SDS011;54464;50.558;9.704;2023-04-12T03:37:33;5.60;;;1.80;;
27161;SDS011;54464;50.558;9.704;2023-04-12T03:39:59;6.17;;;1.70;;
27161;SDS011;54464;50.558;9.704;2023-04-12T03:42:25;4.57;;;1.80;;
27161;SDS011;54464;50.558;9.704;2023-04-12T03:44:55;4.33;;;1.53;;
27161;SDS011;54464;50.558;9.704;2023-04-12T03:47:21;4.00;;;1.40;;
27161;SDS011;54464;50.558;9.704;2023-04-12T03:49:46;5.00;;;1.50;;
27161;SDS011;54464;50.558;9.704;2023-04-12T03:52:12;4.33;;;2.27;;
27161;SDS011;54464;50.558;9.704;2023-04-12T03:54:38;3.73;;;1.57;;
27161;SDS011;54464;50.558;9.704;2023-04-12T03:57:04;4.70;;;1.70;;
27161;SDS011;54464;50.558;9.704;2023-04-12T03:59:30;4.97;;;1.53;;
27161;SDS011;54464;50.558;9.704;2023-04-12T04:01:56;3.37;;;1.80;;
27161;SDS011;54464;50.558;9.704;2023-04-12T04:04:25;4.87;;;1.30;;
27161;SDS011;54464;50.558;9.704;2023-04-12T04:06:51;4.43;;;1.47;;
27161;SDS011;54464;50.558;9.704;2023-04-12T04:09:17;5.83;;;1.53;;
27161;SDS011;54464;50.558;9.704;2023-04-12T04:11:43;6.60;;;1.73;;
27161;SDS011;54464;50.558;9.704;2023-04-12T04:14:09;4.97;;;1.33;;
27161;SDS011;54464;50.558;9.704;2023-04-12T04:16:35;3.23;;;1.37;;
27161;SDS011;54464;50.558;9.704;2023-04-12T04:19:00;4.67;;;1.70;;
27161;SDS011;54464;50.558;9.704;2023-04-12T04:21:26;5.40;;;1.73;;
27161;SDS011;54464;50.558;9.704;2023-04-12T04:23:54;7.90;;;2.10;;
27161;SDS011;54464;50.558;9.704;2023-04-12T04:26:22;5.80;;;1.90;;
27161;SDS011;54464;50.558;9.704;2023-04-12T04:28:56;5.77;;;1.73;;
27161;SDS011;54464;50.558;9.704;2023-04-12T04:31:25;4.80;;;1.80;;
27161;SDS011;54464;50.558;9.704;2023-04-12T04:33:52;5.70;;;1.93;;
27161;SDS011;54464;50.558;9.704;2023-04-12T04:36:17;5.43;;;2.13;;
27161;SDS011;54464;50.558;9.704;2023-04-12T04:38:43;6.23;;;1.70;;
27161;SDS011;54464;50.558;9.704;2023-04-12T04:41:09;4.33;;;2.03;;
27161;SDS011;54464;50.558;9.704;2023-04-12T04:43:36;6.73;;;2.07;;
27161;SDS011;54464;50.558;9.704;2023-04-12T04:46:03;5.60;;;1.90;;
27161;SDS011;54464;50.558;9.704;2023-04-12T04:48:29;2.87;;;1.40;;
27161;SDS011;54464;50.558;9.704;2023-04-12T04:50:55;3.87;;;2.00;;
27161;SDS011;54464;50.558;9.704;2023-04-12T04:53:21;4.47;;;1.70;;
27161;SDS011;54464;50.558;9.704;2023-04-12T04:55:47;8.03;;;1.77;;
27161;SDS011;54464;50.558;9.704;2023-04-12T04:58:13;5.10;;;1.70;;
27161;SDS011;54464;50.558;9.704;2023-04-12T05:00:40;4.77;;;1.67;;
27161;SDS011;54464;50.558;9.704;2023-04-12T05:03:08;6.03;;;1.73;;
27161;SDS011;54464;50.558;9.704;2023-04-12T05:05:34;3.63;;;1.67;;
27161;SDS011;54464;50.558;9.704;2023-04-12T05:08:00;7.70;;;2.73;;
27161;SDS011;54464;50.558;9.704;2023-04-12T05:10:26;4.00;;;1.90;;
27161;SDS011;54464;50.558;9.704;2023-04-12T05:12:51;4.83;;;1.80;;
27161;SDS011;54464;50.558;9.704;2023-04-12T05:15:17;5.20;;;1.93;;
27161;SDS011;54464;50.558;9.704;2023-04-12T05:17:44;7.00;;;2.10;;
27161;SDS011;54464;50.558;9.704;2023-04-12T05:20:10;6.47;;;1.90;;
27161;SDS011;54464;50.558;9.704;2023-04-12T05:22:35;5.43;;;2.20;;
27161;SDS011;54464;50.558;9.704;2023-04-12T05:25:01;4.10;;;1.93;;
27161;SDS011;54464;50.558;9.704;2023-04-12T05:27:28;5.50;;;2.07;;
27161;SDS011;54464;50.558;9.704;2023-04-12T05:29:57;6.40;;;2.23;;
27161;SDS011;54464;50.558;9.704;2023-04-12T05:32:23;4.27;;;2.10;;
27161;SDS011;54464;50.558;9.704;2023-04-12T05:34:49;4.57;;;2.30;;
27161;SDS011;54464;50.558;9.704;2023-04-12T05:37:16;6.67;;;1.90;;
27161;SDS011;54464;50.558;9.704;2023-04-12T05:39:41;3.70;;;1.90;;
27161;SDS011;54464;50.558;9.704;2023-04-12T05:42:07;5.00;;;2.10;;
27161;SDS011;54464;50.558;9.704;2023-04-12T05:44:36;4.67;;;2.47;;
27161;SDS011;54464;50.558;9.704;2023-04-12T05:47:03;4.97;;;2.20;;
27161;SDS011;54464;50.558;9.704;2023-04-12T05:49:29;3.97;;;2.50;;
27161;SDS011;54464;50.558;9.704;2023-04-12T05:51:57;4.40;;;2.47;;
27161;SDS011;54464;50.558;9.704;2023-04-12T05:54:23;3.77;;;2.33;;
27161;SDS011;54464;50.558;9.704;2023-04-12T05:56:49;3.87;;;2.30;;
27161;SDS011;54464;50.558;9.704;2023-04-12T05:59:18;3.83;;;1.87;;
27161;SDS011;54464;50.558;9.704;2023-04-12T06:01:44;5.70;;;2.57;;
27161;SDS011;54464;50.558;9.704;2023-04-12T06:04:10;5.33;;;2.30;;
27161;SDS011;54464;50.558;9.704;2023-04-12T06:06:35;5.60;;;2.57;;
27161;SDS011;54464;50.558;9.704;2023-04-12T06:09:01;7.23;;;2.30;;
27161;SDS011;54464;50.558;9.704;2023-04-12T06:11:28;5.37;;;2.10;;
27161;SDS011;54464;50.558;9.704;2023-04-12T06:13:55;5.50;;;1.97;;
27161;SDS011;54464;50.558;9.704;2023-04-12T06:16:21;6.47;;;2.50;;
27161;SDS011;54464;50.558;9.704;2023-04-12T06:18:46;3.10;;;1.90;;
27161;SDS011;54464;50.558;9.704;2023-04-12T06:21:12;3.03;;;2.23;;
27161;SDS011;54464;50.558;9.704;2023-04-12T06:23:38;4.60;;;2.30;;
27161;SDS011;54464;50.558;9.704;2023-04-12T06:26:03;4.30;;;2.10;;
27161;SDS011;54464;50.558;9.704;2023-04-12T06:28:29;2.90;;;2.00;;
27161;SDS011;54464;50.558;9.704;2023-04-12T06:30:55;3.03;;;1.90;;
27161;SDS011;54464;50.558;9.704;2023-04-12T06:33:20;3.57;;;1.70;;
27161;SDS011;54464;50.558;9.704;2023-04-12T06:35:47;4.00;;;1.90;;
27161;SDS011;54464;50.558;9.704;2023-04-12T06:38:13;4.07;;;1.60;;
27161;SDS011;54464;50.558;9.704;2023-04-12T06:40:38;2.80;;;1.60;;
27161;SDS011;54464;50.558;9.704;2023-04-12T06:43:04;2.57;;;1.80;;
27161;SDS011;54464;50.558;9.704;2023-04-12T06:45:29;4.23;;;1.73;;
27161;SDS011;54464;50.558;9.704;2023-04-12T06:47:55;3.37;;;1.40;;
27161;SDS011;54464;50.558;9.704;2023-04-12T06:50:21;2.10;;;1.50;;
27161;SDS011;54464;50.558;9.704;2023-04-12T06:52:47;3.33;;;1.83;;
27161;SDS011;54464;50.558;9.704;2023-04-12T06:55:13;3.97;;;2.10;;
27161;SDS011;54464;50.558;9.704;2023-04-12T06:57:40;2.27;;;1.83;;
27161;SDS011;54464;50.558;9.704;2023-04-12T07:00:07;3.70;;;2.53;;
27161;SDS011;54464;50.558;9.704;2023-04-12T07:02:33;3.30;;;2.23;;
27161;SDS011;54464;50.558;9.704;2023-04-12T07:04:58;3.30;;;1.80;;
27161;SDS011;54464;50.558;9.704;2023-04-12T07:07:24;3.37;;;2.00;;
27161;SDS011;54464;50.558;9.704;2023-04-12T07:09:50;3.07;;;1.70;;
27161;SDS011;54464;50.558;9.704;2023-04-12T07:12:16;3.90;;;1.83;;
27161;SDS011;54464;50.558;9.704;2023-04-12T07:14:42;2.70;;;1.63;;
27161;SDS011;54464;50.558;9.704;2023-04-12T07:17:07;2.47;;;1.70;;
27161;SDS011;54464;50.558;9.704;2023-04-12T07:19:33;1.80;;;1.33;;
27161;SDS011;54464;50.558;9.704;2023-04-12T07:21:59;2.10;;;1.77;;
27161;SDS011;54464;50.558;9.704;2023-04-12T07:24:25;2.17;;;1.40;;
27161;SDS011;54464;50.558;9.704;2023-04-12T07:26:53;2.70;;;1.40;;
27161;SDS011;54464;50.558;9.704;2023-04-12T07:29:19;2.57;;;1.90;;
27161;SDS011;54464;50.558;9.704;2023-04-12T07:31:45;1.57;;;1.10;;
27161;SDS011;54464;50.558;9.704;2023-04-12T07:34:10;2.30;;;1.40;;
27161;SDS011;54464;50.558;9.704;2023-04-12T07:36:36;2.50;;;1.43;;
27161;SDS011;54464;50.558;9.704;2023-04-12T07:39:02;2.30;;;1.70;;
27161;SDS011;54464;50.558;9.704;2023-04-12T07:41:28;1.90;;;1.50;;
27161;SDS011;54464;50.558;9.704;2023-04-12T07:43:53;2.87;;;1.33;;
27161;SDS011;54464;50.558;9.704;2023-04-12T07:46:19;2.50;;;1.47;;
27161;SDS011;54464;50.558;9.704;2023-04-12T07:48:45;1.50;;;1.40;;
27161;SDS011;54464;50.558;9.704;2023-04-12T07:51:11;1.43;;;1.20;;
27161;SDS011;54464;50.558;9.704;2023-04-12T07:53:36;3.37;;;1.50;;
27161;SDS011;54464;50.558;9.704;2023-04-12T07:56:02;2.03;;;1.43;;
27161;SDS011;54464;50.558;9.704;2023-04-12T07:58:30;3.57;;;1.60;;
27161;SDS011;54464;50.558;9.704;2023-04-12T08:00:56;1.90;;;1.67;;
27161;SDS011;54464;50.558;9.704;2023-04-12T08:03:22;1.73;;;1.10;;
27161;SDS011;54464;50.558;9.704;2023-04-12T08:05:48;2.07;;;1.20;;
27161;SDS011;54464;50.558;9.704;2023-04-12T08:08:17;2.83;;;1.20;;
27161;SDS011;54464;50.558;9.704;2023-04-12T08:10:43;2.07;;;1.30;;
27161;SDS011;54464;50.558;9.704;2023-04-12T08:13:09;1.70;;;1.00;;
27161;SDS011;54464;50.558;9.704;2023-04-12T08:15:35;2.20;;;1.10;;
27161;SDS011;54464;50.558;9.704;2023-04-12T08:18:00;2.50;;;1.00;;
27161;SDS011;54464;50.558;9.704;2023-04-12T08:20:26;2.47;;;1.17;;
27161;SDS011;54464;50.558;9.704;2023-04-12T08:22:52;1.33;;;0.90;;
27161;SDS011;54464;50.558;9.704;2023-04-12T08:25:18;0.80;;;0.80;;
27161;SDS011;54464;50.558;9.704;2023-04-12T08:27:45;2.43;;;0.90;;
27161;SDS011;54464;50.558;9.704;2023-04-12T08:30:11;1.13;;;0.70;;
27161;SDS011;54464;50.558;9.704;2023-04-12T08:32:37;1.27;;;0.70;;
27161;SDS011;54464;50.558;9.704;2023-04-12T08:35:03;1.83;;;0.90;;
27161;SDS011;54464;50.558;9.704;2023-04-12T08:37:30;1.60;;;0.80;;
27161;SDS011;54464;50.558;9.704;2023-04-12T08:39:57;1.07;;;0.70;;
27161;SDS011;54464;50.558;9.704;2023-04-12T08:42:28;0.90;;;0.80;;
27161;SDS011;54464;50.558;9.704;2023-04-12T08:44:54;0.50;;;0.50;;
27161;SDS011;54464;50.558;9.704;2023-04-12T08:47:20;0.63;;;0.53;;
27161;SDS011;54464;50.558;9.704;2023-04-12T08:49:46;0.87;;;0.70;;
27161;SDS011;54464;50.558;9.704;2023-04-12T08:52:12;1.60;;;1.10;;
27161;SDS011;54464;50.558;9.704;2023-04-12T08:54:37;0.70;;;0.70;;
27161;SDS011;54464;50.558;9.704;2023-04-12T08:57:05;0.70;;;0.70;;
27161;SDS011;54464;50.558;9.704;2023-04-12T08:59:33;2.30;;;0.87;;
27161;SDS011;54464;50.558;9.704;2023-04-12T09:02:01;2.20;;;0.90;;
27161;SDS011;54464;50.558;9.704;2023-04-12T09:04:27;1.00;;;0.80;;
27161;SDS011;54464;50.558;9.704;2023-04-12T09:06:53;1.20;;;1.10;;
27161;SDS011;54464;50.558;9.704;2023-04-12T09:09:38;0.97;;;0.93;;
27161;SDS011;54464;50.558;9.704;2023-04-12T09:12:05;1.10;;;0.80;;
27161;SDS011;54464;50.558;9.704;2023-04-12T09:14:32;1.00;;;0.90;;
27161;SDS011;54464;50.558;9.704;2023-04-12T09:16:57;5.07;;;0.80;;
27161;SDS011;54464;50.558;9.704;2023-04-12T09:19:30;1.63;;;1.00;;
27161;SDS011;54464;50.558;9.704;2023-04-12T09:21:56;0.80;;;0.80;;
27161;SDS011;54464;50.558;9.704;2023-04-12T09:24:22;1.20;;;0.97;;
27161;SDS011;54464;50.558;9.704;2023-04-12T09:26:49;1.23;;;0.80;;
27161;SDS011;54464;50.558;9.704;2023-04-12T09:29:26;1.00;;;0.80;;
27161;SDS011;54464;50.558;9.704;2023-04-12T09:32:05;0.80;;;0.80;;
27161;SDS011;54464;50.558;9.704;2023-04-12T09:34:32;1.00;;;0.90;;
27161;SDS011;54464;50.558;9.704;2023-04-12T09:39:40;0.83;;;0.53;;
27161;SDS011;54464;50.558;9.704;2023-04-12T09:42:09;1.67;;;1.07;;
27161;SDS011;54464;50.558;9.704;2023-04-12T09:44:35;0.87;;;0.70;;
27161;SDS011;54464;50.558;9.704;2023-04-12T09:47:02;1.70;;;0.97;;
27161;SDS011;54464;50.558;9.704;2023-04-12T09:49:35;3.03;;;1.20;;
27161;SDS011;54464;50.558;9.704;2023-04-12T09:52:05;1.43;;;0.97;;
27161;SDS011;54464;50.558;9.704;2023-04-12T09:54:35;0.93;;;0.90;;
27161;SDS011;54464;50.558;9.704;2023-04-12T09:57:05;0.90;;;0.90;;
27161;SDS011;54464;50.558;9.704;2023-04-12T09:59:32;1.00;;;0.80;;
27161;SDS011;54464;50.558;9.704;2023-04-12T10:02:10;1.67;;;1.10;;
27161;SDS011;54464;50.558;9.704;2023-04-12T10:04:42;1.53;;;1.20;;
27161;SDS011;54464;50.558;9.704;2023-04-12T10:07:09;1.27;;;1.17;;
27161;SDS011;54464;50.558;9.704;2023-04-12T10:09:36;1.20;;;1.10;;
27161;SDS011;54464;50.558;9.704;2023-04-12T10:12:03;0.77;;;0.77;;
27161;SDS011;54464;50.558;9.704;2023-04-12T10:14:29;1.53;;;0.90;;
27161;SDS011;54464;50.558;9.704;2023-04-12T10:16:59;1.63;;;1.00;;
27161;SDS011;54464;50.558;9.704;2023-04-12T10:19:26;1.60;;;1.50;;
27161;SDS011;54464;50.558;9.704;2023-04-12T10:21:58;1.63;;;1.10;;
27161;SDS011;54464;50.558;9.704;2023-04-12T10:24:25;1.30;;;1.20;;
27161;SDS011;54464;50.558;9.704;2023-04-12T10:26:52;2.37;;;1.30;;
27161;SDS011;54464;50.558;9.704;2023-04-12T10:29:30;2.20;;;1.10;;
27161;SDS011;54464;50.558;9.704;2023-04-12T10:31:58;1.73;;;1.03;;
27161;SDS011;54464;50.558;9.704;2023-04-12T10:34:49;1.67;;;1.57;;
27161;SDS011;54464;50.558;9.704;2023-04-12T10:37:16;1.90;;;1.47;;
27161;SDS011;54464;50.558;9.704;2023-04-12T10:39:50;1.90;;;1.40;;
27161;SDS011;54464;50.558;9.704;2023-04-12T10:44:49;1.20;;;1.10;;
27161;SDS011;54464;50.558;9.704;2023-04-12T10:55:41;1.20;;;1.03;;
27161;SDS011;54464;50.558;9.704;2023-04-12T11:01:19;1.60;;;1.10;;
27161;SDS011;54464;50.558;9.704;2023-04-12T11:14:33;1.80;;;1.10;;
27161;SDS011;54464;50.558;9.704;2023-04-12T11:19:30;1.57;;;1.00;;
27161;SDS011;54464;50.558;9.704;2023-04-12T11:21:59;2.03;;;1.47;;
27161;SDS011;54464;50.558;9.704;2023-04-12T11:24:26;1.90;;;1.43;;
27161;SDS011;54464;50.558;9.704;2023-04-12T11:26:55;2.30;;;1.47;;
27161;SDS011;54464;50.558;9.704;2023-04-12T11:29:24;1.27;;;1.17;;
27161;SDS011;54464;50.558;9.704;2023-04-12T11:31:51;1.77;;;1.60;;
27161;SDS011;54464;50.558;9.704;2023-04-12T11:34:17;2.10;;;1.73;;
27161;SDS011;54464;50.558;9.704;2023-04-12T11:36:46;2.80;;;1.40;;
27161;SDS011;54464;50.558;9.704;2023-04-12T11:39:19;1.67;;;1.30;;
27161;SDS011;54464;50.558;9.704;2023-04-12T11:41:54;2.30;;;1.90;;
27161;SDS011;54464;50.558;9.704;2023-04-12T11:44:20;3.17;;;1.90;;
27161;SDS011;54464;50.558;9.704;2023-04-12T11:46:47;1.73;;;1.63;;
27161;SDS011;54464;50.558;9.704;2023-04-12T11:49:13;1.40;;;1.27;;
27161;SDS011;54464;50.558;9.704;2023-04-12T11:51:43;1.40;;;1.30;;
27161;SDS011;54464;50.558;9.704;2023-04-12T11:54:10;2.20;;;1.43;;
27161;SDS011;54464;50.558;9.704;2023-04-12T11:56:36;1.40;;;1.30;;
27161;SDS011;54464;50.558;9.704;2023-04-12T11:59:02;2.37;;;1.70;;
27161;SDS011;54464;50.558;9.704;2023-04-12T12:01:29;2.27;;;1.77;;
27161;SDS011;54464;50.558;9.704;2023-04-12T12:03:56;1.90;;;1.73;;
27161;SDS011;54464;50.558;9.704;2023-04-12T12:06:25;1.87;;;1.40;;
27161;SDS011;54464;50.558;9.704;2023-04-12T12:08:51;1.67;;;1.57;;
27161;SDS011;54464;50.558;9.704;2023-04-12T12:11:21;1.83;;;1.57;;
27161;SDS011;54464;50.558;9.704;2023-04-12T12:13:49;1.50;;;1.40;;
27161;SDS011;54464;50.558;9.704;2023-04-12T12:16:16;2.70;;;1.53;;
27161;SDS011;54464;50.558;9.704;2023-04-12T12:18:43;2.00;;;1.77;;
27161;SDS011;54464;50.558;9.704;2023-04-12T12:21:10;1.90;;;1.33;;
27161;SDS011;54464;50.558;9.704;2023-04-12T12:23:37;1.90;;;1.50;;
27161;SDS011;54464;50.558;9.704;2023-04-12T12:26:05;2.03;;;1.50;;
27161;SDS011;54464;50.558;9.704;2023-04-12T12:28:37;2.13;;;1.57;;
27161;SDS011;54464;50.558;9.704;2023-04-12T12:31:04;2.90;;;1.83;;
27161;SDS011;54464;50.558;9.704;2023-04-12T12:33:40;1.53;;;1.43;;
27161;SDS011;54464;50.558;9.704;2023-04-12T12:36:06;2.40;;;2.20;;
27161;SDS011;54464;50.558;9.704;2023-04-12T12:38:36;1.90;;;1.60;;
27161;SDS011;54464;50.558;9.704;2023-04-12T12:41:23;2.00;;;1.80;;
27161;SDS011;54464;50.558;9.704;2023-04-12T12:43:51;1.27;;;1.17;;
27161;SDS011;54464;50.558;9.704;2023-04-12T12:46:17;3.40;;;3.10;;
27161;SDS011;54464;50.558;9.704;2023-04-12T12:48:44;2.83;;;1.90;;
27161;SDS011;54464;50.558;9.704;2023-04-12T12:51:11;2.63;;;2.10;;
27161;SDS011;54464;50.558;9.704;2023-04-12T12:53:38;2.17;;;1.63;;
27161;SDS011;54464;50.558;9.704;2023-04-12T12:56:05;3.03;;;2.03;;
27161;SDS011;54464;50.558;9.704;2023-04-12T12:58:33;2.33;;;2.13;;
27161;SDS011;54464;50.558;9.704;2023-04-12T13:00:58;2.40;;;2.20;;
27161;SDS011;54464;50.558;9.704;2023-04-12T13:03:24;3.27;;;2.23;;
27161;SDS011;54464;50.558;9.704;2023-04-12T13:05:50;2.77;;;2.50;;
27161;SDS011;54464;50.558;9.704;2023-04-12T13:08:16;3.00;;;2.80;;
27161;SDS011;54464;50.558;9.704;2023-04-12T13:10:42;2.40;;;2.20;;
27161;SDS011;54464;50.558;9.704;2023-04-12T13:13:07;2.50;;;1.83;;
27161;SDS011;54464;50.558;9.704;2023-04-12T13:15:33;2.67;;;2.20;;
27161;SDS011;54464;50.558;9.704;2023-04-12T13:17:59;2.23;;;2.00;;
27161;SDS011;54464;50.558;9.704;2023-04-12T13:20:25;2.73;;;2.10;;
27161;SDS011;54464;50.558;9.704;2023-04-12T13:22:53;2.50;;;2.30;;
27161;SDS011;54464;50.558;9.704;2023-04-12T13:25:19;2.63;;;2.43;;
27161;SDS011;54464;50.558;9.704;2023-04-12T13:27:49;3.13;;;2.40;;
27161;SDS011;54464;50.558;9.704;2023-04-12T13:30:16;2.87;;;1.90;;
27161;SDS011;54464;50.558;9.704;2023-04-12T13:32:44;3.97;;;2.40;;
27161;SDS011;54464;50.558;9.704;2023-04-12T13:35:10;2.50;;;2.27;;
27161;SDS011;54464;50.558;9.704;2023-04-12T13:37:36;2.60;;;2.40;;
27161;SDS011;54464;50.558;9.704;2023-04-12T13:40:02;3.77;;;2.63;;
27161;SDS011;54464;50.558;9.704;2023-04-12T13:42:28;3.30;;;3.10;;
27161;SDS011;54464;50.558;9.704;2023-04-12T13:44:53;3.30;;;2.53;;
27161;SDS011;54464;50.558;9.704;2023-04-12T13:47:19;2.97;;;2.60;;
27161;SDS011;54464;50.558;9.704;2023-04-12T13:49:45;4.37;;;2.80;;
27161;SDS011;54464;50.558;9.704;2023-04-12T13:52:11;2.83;;;2.63;;
27161;SDS011;54464;50.558;9.704;2023-04-12T13:54:37;3.33;;;3.00;;
27161;SDS011;54464;50.558;9.704;2023-04-12T13:57:03;2.97;;;2.77;;
27161;SDS011;54464;50.558;9.704;2023-04-12T13:59:29;5.57;;;4.20;;
27161;SDS011;54464;50.558;9.704;2023-04-12T14:01:55;4.40;;;4.00;;
27161;SDS011;54464;50.558;9.704;2023-04-12T14:04:21;3.73;;;3.30;;
27161;SDS011;54464;50.558;9.704;2023-04-12T14:06:46;5.00;;;3.57;;
27161;SDS011;54464;50.558;9.704;2023-04-12T14:09:22;3.90;;;3.50;;
27161;SDS011;54464;50.558;9.704;2023-04-12T14:11:52;3.90;;;3.60;;
27161;SDS011;54464;50.558;9.704;2023-04-12T14:14:25;3.73;;;2.90;;
27161;SDS011;54464;50.558;9.704;2023-04-12T14:16:51;3.10;;;2.80;;
27161;SDS011;54464;50.558;9.704;2023-04-12T14:19:21;3.83;;;3.03;;
27161;SDS011;54464;50.558;9.704;2023-04-12T14:21:47;3.73;;;2.97;;
27161;SDS011;54464;50.558;9.704;2023-04-12T14:24:14;2.73;;;2.43;;
27161;SDS011;54464;50.558;9.704;2023-04-12T14:26:40;4.10;;;3.70;;
27161;SDS011;54464;50.558;9.704;2023-04-12T14:29:06;3.77;;;3.47;;
27161;SDS011;54464;50.558;9.704;2023-04-12T14:31:33;5.17;;;4.77;;
27161;SDS011;54464;50.558;9.704;2023-04-12T14:34:00;4.70;;;4.30;;
27161;SDS011;54464;50.558;9.704;2023-04-12T14:36:29;3.47;;;3.17;;
27161;SDS011;54464;50.558;9.704;2023-04-12T14:38:55;4.43;;;3.50;;
27161;SDS011;54464;50.558;9.704;2023-04-12T14:41:21;4.10;;;3.70;;
27161;SDS011;54464;50.558;9.704;2023-04-12T14:43:47;3.73;;;2.87;;
27161;SDS011;54464;50.558;9.704;2023-04-12T14:46:14;2.67;;;2.40;;
27161;SDS011;54464;50.558;9.704;2023-04-12T14:48:40;2.80;;;2.60;;
27161;SDS011;54464;50.558;9.704;2023-04-12T14:51:06;3.20;;;2.90;;
27161;SDS011;54464;50.558;9.704;2023-04-12T14:53:32;2.57;;;2.37;;
27161;SDS011;54464;50.558;9.704;2023-04-12T14:55:57;3.33;;;2.40;;
27161;SDS011;54464;50.558;9.704;2023-04-12T14:58:26;3.63;;;3.10;;
27161;SDS011;54464;50.558;9.704;2023-04-12T15:00:55;5.00;;;2.93;;
27161;SDS011;54464;50.558;9.704;2023-04-12T15:03:22;3.10;;;2.77;;
27161;SDS011;54464;50.558;9.704;2023-04-12T15:05:48;2.40;;;2.20;;
27161;SDS011;54464;50.558;9.704;2023-04-12T15:08:13;2.77;;;2.57;;
27161;SDS011;54464;50.558;9.704;2023-04-12T15:10:39;2.90;;;2.57;;
27161;SDS011;54464;50.558;9.704;2023-04-12T15:13:05;2.90;;;2.53;;
27161;SDS011;54464;50.558;9.704;2023-04-12T15:15:30;3.50;;;2.13;;
27161;SDS011;54464;50.558;9.704;2023-04-12T15:17:56;2.43;;;2.00;;
27161;SDS011;54464;50.558;9.704;2023-04-12T15:20:22;2.20;;;1.90;;
27161;SDS011;54464;50.558;9.704;2023-04-12T15:22:47;2.90;;;1.53;;
27161;SDS011;54464;50.558;9.704;2023-04-12T15:25:13;1.57;;;1.47;;